Time;durP1;ratioP1;P1;durP2;ratioP2;P2;SDS_P1;SDS_P2;PMS_P1;PMS_P2;Temp;Humidity;BMP_temperature;BMP_pressure;BME280_temperature;BME280_humidity;BME280_pressure;Samples;Min_cycle;Max_cycle;Signal;HPM_P1;HPM_P2
2023/10/25 05:46:58;;;;;;;1.95;1.40;;;;;;;;;;10577892;27;20407;-86
2023/10/25 05:52:00;;;;;;;2.35;1.50;;;;;;;;;;10563956;28;20388;-86
2023/10/25 05:57:21;;;;;;;6.75;5.95;;;;;;;;;;10575943;22;20049;-87
2023/10/25 06:08:11;;;;;;;1.98;1.40;;;;;;;;;;10498812;28;20024;-86
2023/10/25 06:13:17;;;;;;;6.00;1.80;;;;;;;;;;10478859;28;20385;-84
2023/10/25 06:24:26;;;;;;;3.60;1.50;;;;;;;;;;10500172;28;20415;-88
2023/10/25 06:29:27;;;;;;;3.67;1.60;;;;;;;;;;10413747;28;20033;-85
2023/10/25 07:08:31;;;;;;;3.33;1.53;;;;;;;;;;10473539;28;20052;-82
2023/10/25 07:14:03;;;;;;;3.47;2.00;;;;;;;;;;10477781;28;20037;-87
2023/10/25 07:19:17;;;;;;;2.80;1.90;;;;;;;;;;10471389;28;20484;-84
2023/10/25 07:24:25;;;;;;;5.43;1.95;;;;;;;;;;10472668;28;20035;-84
2023/10/25 07:30:04;;;;;;;3.55;1.70;;;;;;;;;;10453354;28;20025;-83
2023/10/25 07:40:56;;;;;;;4.32;2.08;;;;;;;;;;10471789;28;20013;-85
2023/10/25 07:46:22;;;;;;;3.20;1.90;;;;;;;;;;10453347;28;20100;-86
2023/10/25 07:51:41;;;;;;;6.65;2.22;;;;;;;;;;10478299;28;20057;-86
2023/10/25 08:02:50;;;;;;;6.05;2.20;;;;;;;;;;10472343;28;20040;-87
2023/10/25 08:08:28;;;;;;;4.95;2.28;;;;;;;;;;10377494;28;20063;-86
2023/10/25 08:13:51;;;;;;;4.25;1.98;;;;;;;;;;10444767;28;20045;-87
2023/10/25 08:18:53;;;;;;;6.25;2.33;;;;;;;;;;10442310;28;20041;-87
2023/10/25 08:24:19;;;;;;;4.35;2.40;;;;;;;;;;10422939;28;20045;-85
2023/10/25 08:29:37;;;;;;;8.10;3.05;;;;;;;;;;10470012;28;20035;-85
2023/10/25 08:35:18;;;;;;;6.20;2.58;;;;;;;;;;10402973;28;20053;-85
2023/10/25 08:40:27;;;;;;;;;;;;;;;;;;10405902;28;20042;-85
2023/10/25 08:51:34;;;;;;;6.07;2.92;;;;;;;;;;10385569;28;20161;-85
2023/10/25 08:56:58;;;;;;;4.47;2.45;;;;;;;;;;10371143;28;20105;-85
2023/10/25 09:02:35;;;;;;;7.90;2.92;;;;;;;;;;10383880;28;20034;-84
2023/10/25 09:07:46;;;;;;;3.30;2.28;;;;;;;;;;10431442;28;20033;-85
2023/10/25 09:19:00;;;;;;;4.72;2.13;;;;;;;;;;10471898;28;20056;-83
2023/10/25 09:52:59;;;;;;;4.65;2.00;;;;;;;;;;10469875;28;20037;-84
2023/10/25 09:58:28;;;;;;;4.55;1.90;;;;;;;;;;10382630;28;20117;-84
2023/10/25 10:04:14;;;;;;;4.38;2.00;;;;;;;;;;10347561;28;20038;-83
2023/10/25 10:15:41;;;;;;;3.70;1.30;;;;;;;;;;10375480;28;20038;-84
2023/10/25 10:21:10;;;;;;;4.20;1.60;;;;;;;;;;10344880;28;20502;-83
2023/10/25 10:26:44;;;;;;;4.10;1.80;;;;;;;;;;10343557;28;20089;-83
2023/10/25 10:31:58;;;;;;;6.60;2.28;;;;;;;;;;10311981;28;20061;-84
2023/10/25 10:37:26;;;;;;;3.70;1.50;;;;;;;;;;10458299;28;20033;-85
2023/10/25 10:42:55;;;;;;;4.43;1.58;;;;;;;;;;10450617;28;20044;-85
2023/10/25 10:48:28;;;;;;;4.15;1.95;;;;;;;;;;10459013;28;20032;-85
2023/10/25 10:53:29;;;;;;;2.80;1.48;;;;;;;;;;10456511;28;20029;-85
2023/10/25 10:58:30;;;;;;;3.47;1.60;;;;;;;;;;10459886;28;20049;-85
2023/10/25 11:03:31;;;;;;;7.35;1.67;;;;;;;;;;10470916;28;20029;-84
2023/10/25 11:08:33;;;;;;;4.13;1.60;;;;;;;;;;10466123;28;20052;-84
2023/10/25 11:13:34;;;;;;;3.53;1.65;;;;;;;;;;10467326;28;20054;-83
2023/10/25 11:18:35;;;;;;;3.67;1.60;;;;;;;;;;10466613;28;20473;-85
2023/10/25 11:23:37;;;;;;;2.88;1.50;;;;;;;;;;10466163;28;20053;-82
2023/10/25 11:28:41;;;;;;;3.78;1.40;;;;;;;;;;10469349;28;20036;-82
2023/10/25 11:33:45;;;;;;;2.45;1.50;;;;;;;;;;10471714;28;20036;-82
2023/10/25 11:38:47;;;;;;;3.42;1.50;;;;;;;;;;10478424;28;20025;-82
2023/10/25 11:43:48;;;;;;;3.42;1.60;;;;;;;;;;10505390;28;20017;-82
2023/10/25 11:48:50;;;;;;;2.88;1.30;;;;;;;;;;10481996;28;20032;-82
2023/10/25 11:53:51;;;;;;;3.75;1.60;;;;;;;;;;10469337;28;20055;-82
2023/10/25 11:58:53;;;;;;;5.25;2.28;;;;;;;;;;10532819;22;20057;-86
2023/10/25 12:03:54;;;;;;;4.28;2.00;;;;;;;;;;10488469;28;20476;-86
2023/10/25 12:08:55;;;;;;;4.53;1.67;;;;;;;;;;10466614;28;20089;-87
2023/10/25 12:13:56;;;;;;;3.30;1.60;;;;;;;;;;10478609;28;20036;-85
2023/10/25 12:18:57;;;;;;;3.72;1.50;;;;;;;;;;10459279;28;20139;-85
2023/10/25 12:23:59;;;;;;;4.15;1.60;;;;;;;;;;10445907;28;20025;-86
2023/10/25 12:29:00;;;;;;;3.10;1.90;;;;;;;;;;10456067;28;20043;-85
2023/10/25 12:34:05;;;;;;;2.95;1.80;;;;;;;;;;10453930;28;20033;-86
2023/10/25 12:39:06;;;;;;;3.60;1.98;;;;;;;;;;10436324;28;20025;-85
2023/10/25 12:44:08;;;;;;;6.25;1.92;;;;;;;;;;10472256;28;20504;-86
2023/10/25 12:49:10;;;;;;;4.20;2.10;;;;;;;;;;10474348;28;20447;-86
2023/10/25 12:54:11;;;;;;;3.88;2.00;;;;;;;;;;10455960;28;20029;-86
2023/10/25 12:59:26;;;;;;;4.05;1.80;;;;;;;;;;10470229;28;20033;-85
2023/10/25 13:04:28;;;;;;;3.92;1.90;;;;;;;;;;10464058;28;20048;-87
2023/10/25 13:09:29;;;;;;;3.22;1.90;;;;;;;;;;10456711;28;20060;-85
2023/10/25 13:14:30;;;;;;;3.28;1.80;;;;;;;;;;10447485;28;20128;-84
2023/10/25 13:19:31;;;;;;;5.13;2.00;;;;;;;;;;10444799;28;20089;-85
2023/10/25 13:24:32;;;;;;;3.22;2.00;;;;;;;;;;10444287;28;20021;-84
2023/10/25 13:29:33;;;;;;;4.18;1.98;;;;;;;;;;10445829;28;20029;-86
2023/10/25 13:34:34;;;;;;;4.03;2.35;;;;;;;;;;10445571;28;20028;-85
2023/10/25 13:39:35;;;;;;;4.35;2.10;;;;;;;;;;10446830;28;20465;-86
2023/10/25 13:44:36;;;;;;;3.28;1.90;;;;;;;;;;10452827;28;20037;-85
2023/10/25 13:49:39;;;;;;;3.50;2.00;;;;;;;;;;10451949;28;20028;-85
2023/10/25 13:54:41;;;;;;;5.35;2.00;;;;;;;;;;10458307;28;20093;-85
2023/10/25 13:59:43;;;;;;;4.53;2.50;;;;;;;;;;10462645;28;20029;-86
2023/10/25 14:04:44;;;;;;;4.28;1.90;;;;;;;;;;10482638;28;20032;-84
2023/10/25 14:09:45;;;;;;;6.68;2.13;;;;;;;;;;10482629;28;20497;-86
2023/10/25 14:14:46;;;;;;;5.32;2.70;;;;;;;;;;10464345;28;20424;-85
2023/10/25 14:19:47;;;;;;;3.22;1.98;;;;;;;;;;10464112;28;20021;-83
2023/10/25 14:24:48;;;;;;;5.20;2.67;;;;;;;;;;10463617;28;20033;-84
2023/10/25 14:29:49;;;;;;;6.68;2.83;;;;;;;;;;10464495;28;20032;-83
2023/10/25 14:34:51;;;;;;;4.78;3.00;;;;;;;;;;10475368;28;20021;-83
2023/10/25 14:39:52;;;;;;;6.38;3.80;;;;;;;;;;10477461;28;20025;-83
2023/10/25 14:44:53;;;;;;;5.55;2.80;;;;;;;;;;10462732;28;20064;-85
2023/10/25 14:49:56;;;;;;;4.35;2.80;;;;;;;;;;10480945;28;20024;-84
2023/10/25 14:54:57;;;;;;;5.22;2.65;;;;;;;;;;10477585;28;20029;-84
2023/10/25 15:00:05;;;;;;;4.32;2.75;;;;;;;;;;10473078;28;20033;-85
2023/10/25 15:05:06;;;;;;;3.42;2.10;;;;;;;;;;10493348;28;20039;-84
2023/10/25 15:10:08;;;;;;;4.85;3.13;;;;;;;;;;10469025;28;20032;-84
2023/10/25 15:15:10;;;;;;;4.38;2.95;;;;;;;;;;10458870;28;20036;-84
2023/10/25 15:20:11;;;;;;;4.18;2.45;;;;;;;;;;10459044;28;20056;-83
2023/10/25 15:25:12;;;;;;;4.72;3.35;;;;;;;;;;10460476;28;20021;-84
2023/10/25 15:30:13;;;;;;;4.38;2.58;;;;;;;;;;10476998;28;20450;-85
2023/10/25 15:35:14;;;;;;;3.42;2.50;;;;;;;;;;10458957;28;20029;-85
2023/10/25 15:40:17;;;;;;;4.15;2.92;;;;;;;;;;10478055;28;20104;-84
2023/10/25 15:45:18;;;;;;;4.78;3.10;;;;;;;;;;10461730;28;20051;-85
2023/10/25 15:50:19;;;;;;;4.05;3.05;;;;;;;;;;10457616;28;20071;-86
2023/10/25 15:55:20;;;;;;;3.90;2.65;;;;;;;;;;10504008;28;20032;-83
2023/10/25 16:00:21;;;;;;;2.90;2.30;;;;;;;;;;10461550;28;20127;-85
2023/10/25 16:05:22;;;;;;;3.47;2.72;;;;;;;;;;10461727;28;20135;-84
2023/10/25 16:10:23;;;;;;;2.63;2.15;;;;;;;;;;10483530;28;20087;-83
2023/10/25 16:15:24;;;;;;;5.15;3.67;;;;;;;;;;10467464;28;20033;-84
2023/10/25 16:20:26;;;;;;;5.22;2.45;;;;;;;;;;10452323;28;20044;-85
2023/10/25 16:25:38;;;;;;;4.10;3.20;;;;;;;;;;10451766;28;20021;-87
2023/10/25 16:30:40;;;;;;;3.92;2.95;;;;;;;;;;10448743;28;20031;-87
2023/10/25 16:41:22;;;;;;;5.43;4.05;;;;;;;;;;10463823;28;20021;-87
2023/10/25 16:47:05;;;;;;;5.75;5.15;;;;;;;;;;10463410;28;20033;-87
2023/10/25 16:57:59;;;;;;;3.78;3.38;;;;;;;;;;10464254;28;20049;-87
2023/10/25 17:03:05;;;;;;;5.28;4.35;;;;;;;;;;10430453;28;20033;-87
2023/10/25 17:13:58;;;;;;;4.90;4.20;;;;;;;;;;10476719;28;20049;-86
2023/10/25 17:19:40;;;;;;;4.43;4.03;;;;;;;;;;10468911;28;20028;-87
2023/10/25 17:25:05;;;;;;;6.00;5.32;;;;;;;;;;10420532;28;20040;-87
2023/10/25 17:30:07;;;;;;;4.55;3.83;;;;;;;;;;10447320;28;20044;-87
2023/10/25 17:35:12;;;;;;;4.00;3.28;;;;;;;;;;10427334;28;20125;-87
2023/10/25 17:40:25;;;;;;;5.15;4.50;;;;;;;;;;10442162;28;20040;-87
2023/10/25 17:45:30;;;;;;;7.80;6.65;;;;;;;;;;10461104;28;20044;-87
2023/10/25 18:07:27;;;;;;;4.40;3.78;;;;;;;;;;10386253;28;20033;-88
2023/10/25 18:18:36;;;;;;;5.15;4.65;;;;;;;;;;10420655;28;20021;-87
2023/10/25 18:29:41;;;;;;;4.15;3.58;;;;;;;;;;10425151;28;20026;-86
